createdAt,value
2022-07-27T00:00:04.131Z,2.80
2022-07-27T00:01:04.190Z,3.80
2022-07-27T00:02:04.127Z,3.60
2022-07-27T00:03:04.123Z,3.20
2022-07-27T00:04:04.198Z,4.40
2022-07-27T00:05:04.124Z,3.00
2022-07-27T00:06:04.129Z,3.80
2022-07-27T00:07:04.121Z,3.40
2022-07-27T00:08:04.124Z,3.70
2022-07-27T00:09:04.118Z,2.80
2022-07-27T00:10:04.127Z,4.00
2022-07-27T00:11:04.122Z,3.60
2022-07-27T00:12:04.123Z,2.90
2022-07-27T00:13:04.120Z,4.50
2022-07-27T00:14:04.138Z,3.60
2022-07-27T00:15:04.121Z,3.60
2022-07-27T00:16:04.139Z,2.80
2022-07-27T00:17:04.115Z,3.30
2022-07-27T00:18:04.125Z,3.40
2022-07-27T00:19:04.116Z,3.20
2022-07-27T00:20:04.129Z,2.70
2022-07-27T00:21:04.116Z,3.40
2022-07-27T00:22:04.118Z,2.90
2022-07-27T00:23:04.116Z,2.90
2022-07-27T00:24:04.118Z,2.20
2022-07-27T00:25:04.112Z,3.30
2022-07-27T00:26:04.115Z,2.40
2022-07-27T00:27:04.115Z,3.10
2022-07-27T00:28:04.125Z,3.40
2022-07-27T00:29:04.129Z,3.00
2022-07-27T00:30:04.115Z,2.70
2022-07-27T00:31:04.191Z,2.40
2022-07-27T00:32:04.111Z,2.80
2022-07-27T00:33:04.117Z,2.30
2022-07-27T00:34:04.112Z,2.90
2022-07-27T00:35:04.110Z,2.50
2022-07-27T00:36:04.108Z,2.90
2022-07-27T00:37:04.109Z,3.10
2022-07-27T00:38:04.133Z,3.10
2022-07-27T00:39:04.109Z,3.30
2022-07-27T00:40:04.109Z,3.20
2022-07-27T00:41:04.106Z,2.80
2022-07-27T00:42:04.109Z,2.30
2022-07-27T00:43:04.109Z,2.80
2022-07-27T00:44:04.106Z,4.50
2022-07-27T00:45:04.105Z,4.60
2022-07-27T00:46:04.742Z,3.30
2022-07-27T00:47:04.190Z,3.50
2022-07-27T00:48:04.104Z,3.50
2022-07-27T00:49:04.144Z,3.50
2022-07-27T00:50:04.111Z,4.10
2022-07-27T00:51:04.101Z,3.90
2022-07-27T00:52:04.100Z,3.10
2022-07-27T00:53:04.099Z,3.50
2022-07-27T00:54:04.107Z,3.10
2022-07-27T00:55:04.108Z,2.30
2022-07-27T00:56:04.102Z,5.10
2022-07-27T00:57:04.101Z,3.00
2022-07-27T00:58:04.102Z,3.10
2022-07-27T00:59:04.298Z,3.60
2022-07-27T01:00:04.100Z,2.20
2022-07-27T01:01:04.098Z,3.30
2022-07-27T01:02:04.208Z,2.80
2022-07-27T01:03:09.255Z,3.10
2022-07-27T01:04:04.096Z,3.50
2022-07-27T01:05:04.094Z,3.20
2022-07-27T01:06:04.100Z,3.60
2022-07-27T01:07:04.095Z,3.40
2022-07-27T01:08:04.094Z,2.60
2022-07-27T01:09:04.093Z,2.70
2022-07-27T01:10:04.093Z,3.20
2022-07-27T01:11:04.094Z,2.90
2022-07-27T01:12:04.094Z,3.20
2022-07-27T01:13:04.093Z,2.60
2022-07-27T01:14:04.094Z,2.80
2022-07-27T01:15:04.092Z,3.40
2022-07-27T01:16:04.149Z,3.40
2022-07-27T01:17:04.088Z,3.10
2022-07-27T01:18:04.089Z,3.80
2022-07-27T01:19:04.088Z,4.60
2022-07-27T01:20:04.089Z,3.10
2022-07-27T01:21:04.099Z,3.30
2022-07-27T01:22:04.087Z,2.10
2022-07-27T01:23:04.088Z,3.20
2022-07-27T01:24:04.092Z,3.30
2022-07-27T01:25:04.091Z,3.90
2022-07-27T01:26:04.090Z,3.20
2022-07-27T01:27:04.088Z,3.90
2022-07-27T01:28:04.087Z,2.70
2022-07-27T01:29:04.088Z,3.90
2022-07-27T01:30:04.083Z,3.00
2022-07-27T01:31:04.144Z,3.10
2022-07-27T01:32:04.084Z,4.00
2022-07-27T01:33:04.087Z,3.60
2022-07-27T01:34:04.085Z,3.10
2022-07-27T01:35:04.083Z,2.70
2022-07-27T01:36:04.079Z,3.20
2022-07-27T01:37:04.082Z,2.40
2022-07-27T01:38:04.080Z,2.90
2022-07-27T01:39:04.082Z,3.40
2022-07-27T01:40:04.079Z,3.00
2022-07-27T01:41:04.078Z,3.20
2022-07-27T01:42:04.082Z,3.30
2022-07-27T01:43:04.078Z,2.00
2022-07-27T01:44:04.075Z,2.30
2022-07-27T01:45:04.079Z,3.90
2022-07-27T01:46:04.161Z,2.70
2022-07-27T01:47:04.097Z,3.20
2022-07-27T01:48:04.078Z,3.20
2022-07-27T01:49:04.169Z,3.00
2022-07-27T01:50:04.084Z,2.30
2022-07-27T01:51:04.077Z,2.70
2022-07-27T01:52:04.074Z,2.30
2022-07-27T01:53:04.076Z,2.50
2022-07-27T01:54:04.073Z,4.10
2022-07-27T01:55:04.075Z,3.40
2022-07-27T01:56:04.071Z,3.90
2022-07-27T01:57:04.072Z,3.50
2022-07-27T01:58:04.075Z,2.60
2022-07-27T01:59:04.075Z,2.30
2022-07-27T02:00:04.082Z,3.90
2022-07-27T02:01:04.078Z,3.20
2022-07-27T02:02:04.098Z,2.90
2022-07-27T02:03:04.074Z,4.00
2022-07-27T02:04:04.068Z,3.20
2022-07-27T02:05:04.124Z,3.70
2022-07-27T02:06:04.070Z,2.70
2022-07-27T02:07:04.069Z,3.00
2022-07-27T02:08:04.069Z,2.90
2022-07-27T02:09:04.071Z,3.70
2022-07-27T02:10:04.065Z,2.80
2022-07-27T02:11:04.065Z,3.80
2022-07-27T02:12:04.063Z,2.90
2022-07-27T02:13:21.987Z,2.20
2022-07-27T02:14:04.115Z,3.10
2022-07-27T02:15:05.825Z,2.60
2022-07-27T02:16:04.098Z,4.20
2022-07-27T02:17:04.063Z,3.20
2022-07-27T02:18:04.059Z,2.90
2022-07-27T02:19:04.872Z,3.40
2022-07-27T02:20:04.061Z,4.20
2022-07-27T02:21:04.062Z,3.90
2022-07-27T02:22:04.057Z,4.20
2022-07-27T02:23:04.060Z,3.60
2022-07-27T02:24:04.055Z,3.00
2022-07-27T02:25:04.060Z,3.60
2022-07-27T02:26:04.057Z,3.00
2022-07-27T02:27:04.054Z,4.60
2022-07-27T02:28:04.054Z,2.90
2022-07-27T02:29:04.053Z,3.50
2022-07-27T02:30:04.054Z,3.20
2022-07-27T02:31:04.053Z,3.40
2022-07-27T02:32:04.050Z,3.90
2022-07-27T02:33:04.224Z,3.10
2022-07-27T02:34:04.050Z,3.30
2022-07-27T02:35:18.640Z,3.40
2022-07-27T02:36:04.050Z,3.20
2022-07-27T02:37:04.056Z,3.00
2022-07-27T02:38:04.047Z,3.60
2022-07-27T02:39:04.047Z,5.40
2022-07-27T02:40:04.048Z,2.90
2022-07-27T02:41:04.047Z,3.00
2022-07-27T02:42:04.046Z,4.00
2022-07-27T02:43:04.041Z,3.40
2022-07-27T02:44:04.052Z,3.60
2022-07-27T02:45:04.041Z,2.90
2022-07-27T02:46:04.127Z,2.90
2022-07-27T02:47:04.038Z,3.40
2022-07-27T02:48:04.112Z,4.10
2022-07-27T02:49:04.147Z,4.50
2022-07-27T02:50:04.037Z,3.10
2022-07-27T02:51:04.033Z,3.20
2022-07-27T02:52:04.028Z,2.40
2022-07-27T02:53:04.035Z,3.00
2022-07-27T02:54:04.024Z,3.00
2022-07-27T02:55:04.025Z,3.40
2022-07-27T02:56:04.038Z,4.40
2022-07-27T02:57:04.019Z,2.40
2022-07-27T02:58:04.016Z,2.90
2022-07-27T02:59:04.012Z,2.90
2022-07-27T03:00:04.010Z,3.20
2022-07-27T03:01:04.053Z,3.20
2022-07-27T03:02:04.045Z,3.60
2022-07-27T03:03:04.008Z,3.10
2022-07-27T03:04:04.031Z,3.40
2022-07-27T03:05:04.002Z,2.80
2022-07-27T03:06:03.996Z,3.80
2022-07-27T03:07:03.996Z,2.90
2022-07-27T03:08:03.998Z,2.90
2022-07-27T03:09:03.994Z,4.60
2022-07-27T03:10:03.988Z,3.10
2022-07-27T03:11:03.990Z,3.10
2022-07-27T03:12:03.980Z,2.70
2022-07-27T03:13:03.986Z,4.00
2022-07-27T03:14:03.976Z,2.40
2022-07-27T03:15:03.978Z,3.10
2022-07-27T03:16:04.009Z,3.80
2022-07-27T03:17:03.973Z,2.70
2022-07-27T03:18:03.968Z,2.30
2022-07-27T03:19:03.972Z,3.10
2022-07-27T03:20:03.978Z,3.30
2022-07-27T03:21:03.963Z,2.90
2022-07-27T03:22:03.959Z,3.00
2022-07-27T03:23:03.959Z,2.60
2022-07-27T03:24:03.953Z,2.00
2022-07-27T03:25:03.953Z,2.70
2022-07-27T03:26:03.949Z,2.80
2022-07-27T03:27:03.949Z,4.70
2022-07-27T03:28:04.492Z,5.90
2022-07-27T03:29:03.947Z,5.40
2022-07-27T03:30:04.381Z,3.50
2022-07-27T03:31:04.045Z,3.50
2022-07-27T03:32:03.936Z,4.50
2022-07-27T03:33:03.933Z,3.60
2022-07-27T03:34:03.929Z,2.70
2022-07-27T03:35:03.928Z,4.50
2022-07-27T03:36:03.923Z,3.30
2022-07-27T03:37:03.923Z,3.50
2022-07-27T03:38:03.920Z,3.30
2022-07-27T03:39:06.136Z,3.70
2022-07-27T03:40:03.914Z,2.40
2022-07-27T03:41:03.915Z,2.80
2022-07-27T03:42:03.916Z,3.30
2022-07-27T03:43:03.910Z,2.20
2022-07-27T03:44:03.904Z,2.40
2022-07-27T03:45:03.905Z,2.40
2022-07-27T03:46:04.018Z,2.50
2022-07-27T03:47:03.916Z,3.60
2022-07-27T03:48:03.897Z,2.10
2022-07-27T03:49:14.273Z,4.50
2022-07-27T03:50:03.891Z,2.00
2022-07-27T03:51:03.886Z,2.10
2022-07-27T03:52:03.887Z,3.40
2022-07-27T03:53:03.892Z,4.00
2022-07-27T03:54:03.879Z,3.30
2022-07-27T03:55:03.883Z,3.30
2022-07-27T03:56:03.877Z,4.20
2022-07-27T03:57:03.872Z,4.50
2022-07-27T03:58:03.867Z,3.90
2022-07-27T03:59:03.868Z,3.30
2022-07-27T04:00:03.863Z,3.40
2022-07-27T04:01:03.901Z,3.20
2022-07-27T04:02:03.896Z,2.70
2022-07-27T04:03:04.064Z,3.70
2022-07-27T04:04:03.853Z,2.60
2022-07-27T04:05:03.853Z,2.20
2022-07-27T04:06:03.848Z,4.00
2022-07-27T04:07:03.855Z,2.90
2022-07-27T04:08:03.841Z,2.00
2022-07-27T04:09:08.522Z,1.90
2022-07-27T04:10:03.871Z,2.80
2022-07-27T04:11:03.838Z,3.10
2022-07-27T04:12:03.833Z,4.30
2022-07-27T04:13:03.884Z,3.20
2022-07-27T04:14:03.857Z,3.40
2022-07-27T04:15:03.848Z,2.40
2022-07-27T04:16:03.845Z,4.20
2022-07-27T04:17:03.966Z,3.80
2022-07-27T04:18:03.816Z,2.50
2022-07-27T04:19:03.966Z,3.80
2022-07-27T04:20:03.808Z,5.80
2022-07-27T04:21:03.808Z,3.00
2022-07-27T04:22:06.424Z,2.90
2022-07-27T04:23:06.428Z,3.00
2022-07-27T04:34:30.608Z,3.90
2022-07-27T04:37:30.600Z,3.80
2022-07-27T04:38:30.594Z,3.30
2022-07-27T04:39:30.592Z,3.90
2022-07-27T04:40:30.589Z,4.70
2022-07-27T04:42:30.583Z,4.70
2022-07-27T04:43:30.587Z,4.50
2022-07-27T04:44:30.640Z,4.00
2022-07-27T04:45:30.756Z,3.20
2022-07-27T04:46:30.712Z,4.80
2022-07-27T04:49:23.193Z,4.80
2022-07-27T04:50:23.130Z,4.50
2022-07-27T04:51:23.127Z,3.90
2022-07-27T04:52:26.513Z,4.00
2022-07-27T04:53:23.121Z,4.60
2022-07-27T04:54:23.116Z,4.90
2022-07-27T04:55:23.133Z,5.10
2022-07-27T04:56:23.125Z,5.90
2022-07-27T04:57:23.136Z,4.80
2022-07-27T04:58:23.112Z,4.30
2022-07-27T04:59:23.109Z,5.40
2022-07-27T05:00:23.106Z,4.20
2022-07-27T05:01:23.360Z,5.00
2022-07-27T05:02:23.101Z,5.10
2022-07-27T05:03:23.100Z,4.40
2022-07-27T05:04:23.124Z,5.00
2022-07-27T05:05:23.091Z,4.30
2022-07-27T05:06:23.099Z,5.00
2022-07-27T05:07:23.080Z,5.80
2022-07-27T05:08:23.080Z,3.80
2022-07-27T05:09:23.075Z,4.50
2022-07-27T05:10:23.070Z,5.60
2022-07-27T05:11:23.068Z,5.40
2022-07-27T05:12:23.063Z,4.20
2022-07-27T05:13:23.068Z,4.50
2022-07-27T05:14:23.065Z,5.70
2022-07-27T05:15:23.052Z,6.30
2022-07-27T05:16:28.291Z,4.50
2022-07-27T05:17:23.050Z,5.40
2022-07-27T05:18:23.046Z,4.70
2022-07-27T05:19:23.046Z,3.60
2022-07-27T05:20:23.042Z,4.50
2022-07-27T05:21:23.036Z,4.80
2022-07-27T05:22:23.030Z,4.80
2022-07-27T05:23:23.030Z,3.10
2022-07-27T05:24:23.024Z,5.50
2022-07-27T05:25:23.022Z,5.90
2022-07-27T05:26:23.020Z,3.80
2022-07-27T05:27:23.016Z,5.00
2022-07-27T05:28:23.010Z,5.20
2022-07-27T05:29:23.012Z,5.50
2022-07-27T05:30:23.010Z,4.40
2022-07-27T05:31:23.028Z,3.90
2022-07-27T05:32:22.997Z,3.90
2022-07-27T05:33:22.998Z,3.30
2022-07-27T05:34:22.993Z,4.00
2022-07-27T05:35:22.991Z,4.80
2022-07-27T05:36:22.986Z,4.50
2022-07-27T05:37:22.986Z,3.60
2022-07-27T05:38:22.980Z,3.70
2022-07-27T05:39:22.981Z,4.30
2022-07-27T05:40:22.973Z,4.30
2022-07-27T05:41:22.978Z,5.00
2022-07-27T05:42:22.972Z,3.70
2022-07-27T05:43:22.965Z,4.20
2022-07-27T05:44:22.965Z,3.40
2022-07-27T05:45:23.034Z,5.10
2022-07-27T05:46:23.079Z,4.10
2022-07-27T05:47:22.953Z,4.00
2022-07-27T05:48:22.952Z,3.10
2022-07-27T05:49:23.032Z,4.90
2022-07-27T05:50:22.944Z,3.80
2022-07-27T05:51:22.943Z,4.90
2022-07-27T05:52:22.937Z,4.40
2022-07-27T05:53:22.938Z,5.20
2022-07-27T05:54:22.930Z,4.40
2022-07-27T05:55:22.927Z,3.50
2022-07-27T05:56:22.924Z,4.40
2022-07-27T05:57:22.922Z,3.40
2022-07-27T05:58:23.157Z,4.80
2022-07-27T05:59:22.919Z,4.70
2022-07-27T06:00:22.912Z,3.60
2022-07-27T06:01:22.987Z,4.00
2022-07-27T06:02:22.907Z,4.70
2022-07-27T06:03:22.944Z,4.40
2022-07-27T06:04:22.900Z,5.00
2022-07-27T06:05:22.899Z,5.20
2022-07-27T06:06:22.899Z,4.80
2022-07-27T06:07:22.891Z,5.60
2022-07-27T06:08:22.888Z,4.70
2022-07-27T06:09:22.887Z,5.90
2022-07-27T06:10:22.883Z,5.30
2022-07-27T06:11:22.882Z,7.30
2022-07-27T06:12:22.877Z,4.50
2022-07-27T06:13:26.693Z,4.20
2022-07-27T06:14:22.869Z,5.40
2022-07-27T06:15:22.869Z,5.90
2022-07-27T06:16:22.920Z,4.20
2022-07-27T06:17:22.866Z,5.00
2022-07-27T06:18:22.876Z,4.70
2022-07-27T06:19:22.866Z,3.50
2022-07-27T06:20:22.853Z,3.40
2022-07-27T06:21:22.852Z,5.10
2022-07-27T06:22:22.861Z,4.40
2022-07-27T06:23:22.847Z,3.80
2022-07-27T06:24:22.840Z,7.70
2022-07-27T06:25:22.840Z,4.40
2022-07-27T06:26:22.839Z,4.00
2022-07-27T06:27:27.172Z,3.60
2022-07-27T06:28:22.830Z,5.30
2022-07-27T06:29:22.830Z,3.20
2022-07-27T06:30:22.826Z,3.90
2022-07-27T06:31:22.884Z,3.00
2022-07-27T06:32:22.822Z,4.60
2022-07-27T06:33:22.821Z,4.30
2022-07-27T06:34:22.811Z,3.40
2022-07-27T06:35:22.811Z,2.80
2022-07-27T06:36:22.808Z,4.10
2022-07-27T06:37:22.806Z,4.10
2022-07-27T06:38:22.802Z,3.10
2022-07-27T06:39:22.800Z,4.10
2022-07-27T06:40:26.280Z,3.40
2022-07-27T06:41:22.792Z,3.60
2022-07-27T06:42:22.792Z,4.20
2022-07-27T06:43:22.788Z,2.30
2022-07-27T06:44:22.788Z,3.00
2022-07-27T06:45:22.784Z,2.70
2022-07-27T06:46:22.858Z,3.50
2022-07-27T06:47:25.987Z,3.30
2022-07-27T06:48:22.773Z,6.40
2022-07-27T06:49:22.826Z,4.30
2022-07-27T06:50:22.768Z,3.00
2022-07-27T06:51:22.764Z,3.30
2022-07-27T06:52:22.768Z,4.50
2022-07-27T06:53:22.778Z,7.50
2022-07-27T06:54:22.758Z,3.10
2022-07-27T06:55:22.757Z,3.80
2022-07-27T06:56:22.752Z,3.80
2022-07-27T06:57:22.749Z,3.00
2022-07-27T06:58:22.756Z,3.00
2022-07-27T06:59:22.751Z,5.30
2022-07-27T07:00:22.743Z,2.30
2022-07-27T07:01:22.802Z,2.90
2022-07-27T07:02:22.735Z,3.60
2022-07-27T07:03:22.789Z,3.00
2022-07-27T07:04:23.945Z,4.00
2022-07-27T07:05:22.726Z,2.60
2022-07-27T07:06:22.725Z,2.80
2022-07-27T07:07:22.721Z,3.30
2022-07-27T07:08:22.717Z,2.40
2022-07-27T07:09:22.715Z,3.70
2022-07-27T07:10:23.940Z,3.20
2022-07-27T07:11:22.713Z,2.60
2022-07-27T07:12:22.713Z,2.70
2022-07-27T07:13:22.705Z,2.50
2022-07-27T07:14:22.702Z,2.70
2022-07-27T07:15:22.696Z,3.60
2022-07-27T07:16:22.743Z,3.20
2022-07-27T07:17:22.699Z,3.70
2022-07-27T07:18:22.694Z,2.10
2022-07-27T07:19:22.700Z,3.60
2022-07-27T07:20:22.693Z,3.60
2022-07-27T07:21:22.693Z,3.40
2022-07-27T07:22:22.682Z,3.20
2022-07-27T07:23:22.681Z,2.30
2022-07-27T07:24:22.673Z,2.90
2022-07-27T07:25:22.677Z,3.30
2022-07-27T07:26:22.669Z,2.30
2022-07-27T07:27:22.666Z,2.40
2022-07-27T07:28:22.665Z,2.80
2022-07-27T07:29:22.664Z,2.60
2022-07-27T07:30:22.713Z,3.10
2022-07-27T07:31:22.779Z,5.70
2022-07-27T07:32:22.654Z,4.00
2022-07-27T07:33:22.652Z,3.10
2022-07-27T07:34:22.649Z,3.60
2022-07-27T07:35:22.646Z,2.80
2022-07-27T07:36:22.670Z,2.70
2022-07-27T07:37:22.684Z,3.20
2022-07-27T07:38:22.651Z,2.70
2022-07-27T07:39:24.679Z,1.90
2022-07-27T07:40:42.691Z,2.30
2022-07-27T07:41:22.635Z,2.50
2022-07-27T07:42:22.629Z,4.20
2022-07-27T07:43:22.628Z,3.60
2022-07-27T07:44:22.629Z,4.70
2022-07-27T07:45:22.625Z,3.70
2022-07-27T07:46:22.691Z,2.30
2022-07-27T07:47:22.617Z,3.70
2022-07-27T07:48:22.616Z,2.90
2022-07-27T07:49:39.288Z,3.00
2022-07-27T07:50:22.716Z,4.50
2022-07-27T07:51:22.612Z,3.30
2022-07-27T07:52:22.608Z,2.50
2022-07-27T07:53:22.660Z,2.70
2022-07-27T07:54:22.606Z,3.80
2022-07-27T07:55:22.603Z,2.00
2022-07-27T07:56:22.597Z,1.80
2022-07-27T07:57:22.604Z,2.90
2022-07-27T07:58:22.598Z,3.20
2022-07-27T07:59:22.596Z,2.60
2022-07-27T08:00:22.591Z,2.40
2022-07-27T08:01:22.643Z,2.40
2022-07-27T08:02:22.586Z,2.30
2022-07-27T08:03:22.671Z,3.50
2022-07-27T08:04:22.587Z,2.30
2022-07-27T08:05:22.588Z,2.00
2022-07-27T08:06:22.580Z,2.80
2022-07-27T08:07:22.578Z,4.20
2022-07-27T08:08:24.907Z,4.60
2022-07-27T08:09:22.573Z,2.80
2022-07-27T08:10:22.570Z,3.10
2022-07-27T08:11:22.567Z,2.80
2022-07-27T08:12:22.583Z,2.70
2022-07-27T08:13:22.789Z,2.40
2022-07-27T08:14:22.566Z,2.70
2022-07-27T08:15:34.620Z,3.70
2022-07-27T08:16:22.611Z,2.70
2022-07-27T08:17:22.566Z,3.20
2022-07-27T08:18:22.559Z,2.20
2022-07-27T08:19:22.552Z,3.20
2022-07-27T08:20:22.552Z,3.40
2022-07-27T08:21:22.599Z,3.30
2022-07-27T08:22:22.551Z,2.70
2022-07-27T08:23:22.549Z,2.60
2022-07-27T08:24:22.551Z,2.60
2022-07-27T08:25:22.544Z,2.90
2022-07-27T08:26:22.544Z,2.60
2022-07-27T08:27:22.545Z,2.50
2022-07-27T08:28:22.539Z,3.10
2022-07-27T08:29:23.280Z,2.30
2022-07-27T08:30:22.558Z,1.90
2022-07-27T08:31:26.539Z,3.50
2022-07-27T08:32:22.654Z,2.30
2022-07-27T08:33:22.534Z,3.50
2022-07-27T08:34:22.538Z,4.10
2022-07-27T08:35:22.543Z,4.50
2022-07-27T08:36:22.527Z,4.10
2022-07-27T08:37:22.533Z,3.00
2022-07-27T08:38:22.529Z,4.10
2022-07-27T08:40:05.350Z,3.40
2022-07-27T08:40:40.606Z,2.40
2022-07-27T08:41:22.590Z,2.30
2022-07-27T08:42:22.529Z,2.50
2022-07-27T08:43:25.150Z,3.90
2022-07-27T08:44:22.536Z,2.50
2022-07-27T08:45:22.524Z,2.80
2022-07-27T08:46:22.648Z,2.60
2022-07-27T08:47:22.526Z,4.10
2022-07-27T08:48:22.523Z,2.80
2022-07-27T08:49:28.689Z,1.70
2022-07-27T08:50:22.523Z,2.30
2022-07-27T08:51:22.606Z,2.40
2022-07-27T08:52:22.520Z,1.60
2022-07-27T08:53:22.525Z,2.50
2022-07-27T08:54:22.521Z,3.00
2022-07-27T08:55:22.523Z,1.90
2022-07-27T08:56:22.521Z,1.60
2022-07-27T08:57:22.525Z,2.30
2022-07-27T08:58:22.521Z,2.30
2022-07-27T08:59:22.518Z,3.10
2022-07-27T09:00:22.521Z,2.60
2022-07-27T09:01:22.661Z,2.70
2022-07-27T09:02:22.676Z,3.20
2022-07-27T09:03:22.649Z,2.80
2022-07-27T09:04:22.519Z,3.60
2022-07-27T09:05:22.518Z,2.30
2022-07-27T09:06:22.518Z,1.70
2022-07-27T09:07:22.519Z,3.00
2022-07-27T09:08:22.527Z,3.20
2022-07-27T09:09:22.519Z,2.00
2022-07-27T09:10:22.517Z,2.30
2022-07-27T09:11:22.515Z,3.90
2022-07-27T09:12:22.514Z,3.60
2022-07-27T09:13:22.513Z,3.10
2022-07-27T09:14:22.516Z,2.00
2022-07-27T09:15:22.520Z,2.20
2022-07-27T09:16:22.595Z,1.90
2022-07-27T09:17:51.002Z,2.20
2022-07-27T09:18:22.551Z,1.90
2022-07-27T09:19:22.511Z,1.30
2022-07-27T09:20:22.554Z,2.50
2022-07-27T09:21:22.663Z,2.80
2022-07-27T09:22:22.519Z,2.70
2022-07-27T09:23:22.505Z,2.80
2022-07-27T09:24:45.664Z,3.60
2022-07-27T09:25:44.900Z,2.60
2022-07-27T09:26:31.957Z,2.10
2022-07-27T09:27:22.499Z,2.90
2022-07-27T09:28:22.502Z,2.50
2022-07-27T09:29:22.498Z,2.50
2022-07-27T09:30:22.497Z,1.50
2022-07-27T09:31:22.667Z,2.00
2022-07-27T09:32:22.495Z,1.40
2022-07-27T09:33:22.495Z,1.80
2022-07-27T09:34:22.495Z,1.70
2022-07-27T09:35:22.492Z,1.50
2022-07-27T09:36:22.493Z,1.90
2022-07-27T09:37:22.489Z,2.20
2022-07-27T09:38:22.491Z,2.50
2022-07-27T09:39:22.486Z,1.60
2022-07-27T09:40:25.591Z,2.50
2022-07-27T09:41:22.485Z,3.00
2022-07-27T09:44:43.295Z,2.30
2022-07-27T09:45:22.483Z,2.30
2022-07-27T09:46:22.523Z,1.40
2022-07-27T09:47:22.477Z,2.70
2022-07-27T09:48:22.479Z,1.80
2022-07-27T09:49:22.546Z,2.60
2022-07-27T09:50:22.483Z,1.90
2022-07-27T09:51:58.226Z,2.20
2022-07-27T09:52:22.476Z,1.50
2022-07-27T09:53:41.228Z,1.60
2022-07-27T09:54:22.467Z,3.00
2022-07-27T09:55:22.465Z,3.20
2022-07-27T09:56:22.467Z,2.30
2022-07-27T09:57:22.473Z,2.20
2022-07-27T09:58:22.462Z,1.90
2022-07-27T09:59:22.481Z,3.10
2022-07-27T10:00:22.476Z,2.10
2022-07-27T10:01:22.521Z,1.80
2022-07-27T10:02:22.528Z,2.00
2022-07-27T10:03:22.462Z,3.20
2022-07-27T10:04:22.525Z,1.80
2022-07-27T10:05:22.459Z,2.80
2022-07-27T10:06:22.460Z,2.00
2022-07-27T10:07:22.452Z,2.20
2022-07-27T10:08:22.452Z,2.50
2022-07-27T10:09:22.449Z,1.90
2022-07-27T10:10:22.447Z,2.20
2022-07-27T10:11:22.444Z,1.80
2022-07-27T10:12:23.546Z,2.00
2022-07-27T10:13:22.440Z,2.40
2022-07-27T10:14:22.444Z,1.60
2022-07-27T10:15:22.443Z,1.80
2022-07-27T10:16:22.503Z,1.70
2022-07-27T10:17:22.433Z,2.10
2022-07-27T10:18:22.435Z,2.30
2022-07-27T10:19:22.430Z,3.40
2022-07-27T10:20:22.429Z,3.10
2022-07-27T10:21:22.424Z,3.30
2022-07-27T10:22:22.426Z,2.80
2022-07-27T10:23:22.427Z,2.20
2022-07-27T10:24:22.435Z,2.60
2022-07-27T10:25:22.422Z,2.10
2022-07-27T10:26:22.420Z,2.60
2022-07-27T10:27:22.507Z,1.50
2022-07-27T10:28:22.418Z,2.40
2022-07-27T10:29:22.414Z,2.80
2022-07-27T10:30:23.986Z,1.70
2022-07-27T10:31:22.477Z,1.70
2022-07-27T10:32:22.412Z,1.90
2022-07-27T10:33:22.407Z,3.20
2022-07-27T10:34:22.406Z,3.50
2022-07-27T10:35:22.403Z,2.50
2022-07-27T10:36:22.405Z,2.70
2022-07-27T10:37:22.400Z,1.40
2022-07-27T10:38:22.404Z,1.90
2022-07-27T10:39:22.396Z,2.40
2022-07-27T10:40:22.400Z,2.10
2022-07-27T10:41:22.402Z,2.30
2022-07-27T10:42:22.397Z,2.60
2022-07-27T10:43:22.399Z,1.80
2022-07-27T10:44:22.391Z,3.30
2022-07-27T10:45:22.586Z,1.50
2022-07-27T10:46:22.435Z,2.00
2022-07-27T10:47:22.382Z,3.00
2022-07-27T10:48:22.382Z,3.10
2022-07-27T10:49:22.498Z,2.80
2022-07-27T10:50:22.390Z,2.90
2022-07-27T10:51:22.377Z,2.40
2022-07-27T10:52:22.378Z,2.20
2022-07-27T10:53:22.374Z,2.30
2022-07-27T10:54:22.374Z,1.80
2022-07-27T10:55:22.370Z,2.00
2022-07-27T10:56:22.369Z,2.10
2022-07-27T10:57:22.367Z,2.20
2022-07-27T10:58:22.369Z,1.40
2022-07-27T10:59:22.364Z,2.00
2022-07-27T11:00:22.369Z,3.10
2022-07-27T11:01:22.424Z,1.80
2022-07-27T11:02:22.360Z,2.30
2022-07-27T11:03:22.356Z,1.80
2022-07-27T11:04:22.379Z,2.20
2022-07-27T11:05:58.381Z,1.50
2022-07-27T11:07:24.809Z,2.20
2022-07-27T11:08:46.707Z,1.80
2022-07-27T11:10:22.345Z,1.90
2022-07-27T11:11:22.342Z,3.30
2022-07-27T11:12:22.341Z,2.00
2022-07-27T11:13:22.340Z,1.90
2022-07-27T11:14:30.803Z,1.90
2022-07-27T11:15:22.335Z,1.50
2022-07-27T11:16:24.403Z,1.90
2022-07-27T11:17:52.431Z,2.80
2022-07-27T11:18:22.376Z,1.60
2022-07-27T11:19:22.424Z,1.20
2022-07-27T11:20:22.332Z,2.00
2022-07-27T11:21:26.537Z,2.30
2022-07-27T11:22:39.631Z,1.90
2022-07-27T11:23:52.198Z,1.50
2022-07-27T11:24:22.322Z,2.70
2022-07-27T11:25:22.320Z,2.60
2022-07-27T11:26:22.326Z,1.40
2022-07-27T11:27:25.350Z,1.90
2022-07-27T11:28:22.325Z,1.80
2022-07-27T11:29:22.341Z,1.70
2022-07-27T11:30:22.422Z,2.10
2022-07-27T11:31:45.262Z,1.60
2022-07-27T11:32:22.312Z,1.90
2022-07-27T11:33:22.311Z,1.40
2022-07-27T11:34:22.309Z,2.90
2022-07-27T11:35:22.308Z,3.80
2022-07-27T11:36:22.304Z,2.10
2022-07-27T11:37:22.306Z,1.70
2022-07-27T11:38:22.309Z,2.40
2022-07-27T11:39:54.362Z,1.60
2022-07-27T11:40:53.772Z,2.00
2022-07-27T11:41:40.973Z,2.10
2022-07-27T11:42:23.613Z,2.60
2022-07-27T11:43:22.290Z,1.20
2022-07-27T11:44:22.292Z,1.80
2022-07-27T11:45:22.290Z,1.40
2022-07-27T11:46:22.385Z,2.20
2022-07-27T11:47:22.287Z,1.70
2022-07-27T11:48:22.289Z,1.60
2022-07-27T11:49:22.718Z,1.20
2022-07-27T11:50:22.285Z,2.40
2022-07-27T11:51:22.281Z,1.90
2022-07-27T11:52:22.277Z,1.80
2022-07-27T11:53:22.278Z,2.60
2022-07-27T11:54:22.283Z,2.20
2022-07-27T11:55:22.271Z,2.30
2022-07-27T11:56:22.272Z,2.10
2022-07-27T11:57:22.268Z,1.30
2022-07-27T11:58:22.271Z,1.70
2022-07-27T11:59:22.269Z,2.00
2022-07-27T12:00:22.267Z,1.20
2022-07-27T12:01:22.271Z,1.90
2022-07-27T12:02:22.667Z,1.70
2022-07-27T12:03:22.265Z,2.90
2022-07-27T12:04:22.261Z,2.80
2022-07-27T12:05:22.331Z,2.10
2022-07-27T12:06:22.259Z,2.70
2022-07-27T12:07:22.299Z,2.20
2022-07-27T12:08:22.260Z,2.50
2022-07-27T12:09:22.252Z,2.40
2022-07-27T12:10:22.253Z,1.90
2022-07-27T12:11:26.054Z,2.60
2022-07-27T12:12:22.299Z,2.30
2022-07-27T12:13:22.248Z,3.10
2022-07-27T12:14:22.244Z,2.80
2022-07-27T12:15:45.321Z,2.90
2022-07-27T12:16:22.298Z,1.80
2022-07-27T12:17:22.240Z,1.80
2022-07-27T12:18:22.241Z,2.60
2022-07-27T12:19:22.234Z,1.70
2022-07-27T12:20:22.234Z,2.00
2022-07-27T12:21:22.237Z,2.00
2022-07-27T12:22:22.230Z,2.60
2022-07-27T12:23:22.228Z,2.20
2022-07-27T12:24:22.230Z,2.00
2022-07-27T12:25:22.224Z,2.00
2022-07-27T12:26:22.237Z,2.00
2022-07-27T12:27:22.227Z,2.00
2022-07-27T12:28:22.225Z,1.60
2022-07-27T12:29:22.220Z,1.50
2022-07-27T12:30:22.410Z,2.30
2022-07-27T12:31:22.299Z,2.20
2022-07-27T12:32:22.217Z,2.60
2022-07-27T12:33:22.223Z,2.40
2022-07-27T12:34:22.222Z,2.50
2022-07-27T12:35:22.216Z,2.10
2022-07-27T12:36:22.217Z,2.50
2022-07-27T12:37:22.214Z,2.00
2022-07-27T12:38:22.210Z,2.40
2022-07-27T12:39:22.204Z,2.30
2022-07-27T12:40:22.209Z,2.20
2022-07-27T12:41:22.202Z,2.10
2022-07-27T12:42:22.202Z,2.40
2022-07-27T12:43:22.206Z,2.30
2022-07-27T12:44:22.203Z,2.30
2022-07-27T12:45:22.212Z,2.00
2022-07-27T12:46:22.364Z,1.90
2022-07-27T12:47:27.146Z,1.70
2022-07-27T12:48:22.194Z,2.00
2022-07-27T12:49:22.400Z,2.10
2022-07-27T12:50:22.191Z,3.10
2022-07-27T12:51:22.186Z,3.60
2022-07-27T12:52:22.188Z,3.70
2022-07-27T12:53:22.185Z,2.40
2022-07-27T12:54:22.183Z,2.00
2022-07-27T12:55:22.186Z,1.70
2022-07-27T12:56:26.985Z,2.20
2022-07-27T12:57:53.388Z,1.90
2022-07-27T12:58:22.185Z,2.50
2022-07-27T12:59:22.175Z,1.60
2022-07-27T13:00:22.339Z,1.60
2022-07-27T13:01:22.243Z,2.30
2022-07-27T13:02:22.218Z,1.70
2022-07-27T13:03:22.167Z,3.50
2022-07-27T13:04:22.166Z,2.10
2022-07-27T13:05:22.414Z,2.20
2022-07-27T13:06:22.167Z,2.10
2022-07-27T13:07:22.161Z,2.10
2022-07-27T13:08:22.166Z,2.10
2022-07-27T13:09:22.163Z,1.60
2022-07-27T13:10:22.159Z,3.50
2022-07-27T13:11:22.156Z,1.70
2022-07-27T13:12:22.157Z,1.80
2022-07-27T13:13:22.155Z,1.20
2022-07-27T13:14:22.157Z,2.20
2022-07-27T13:15:22.154Z,2.10
2022-07-27T13:16:22.259Z,1.40
2022-07-27T13:17:22.151Z,1.70
2022-07-27T13:18:23.956Z,2.50
2022-07-27T13:19:22.143Z,1.80
2022-07-27T13:20:22.152Z,3.50
2022-07-27T13:21:22.147Z,2.10
2022-07-27T13:22:22.141Z,1.90
2022-07-27T13:23:22.139Z,2.10
2022-07-27T13:24:22.140Z,4.70
2022-07-27T13:25:22.139Z,1.30
2022-07-27T13:26:22.135Z,2.40
2022-07-27T13:27:22.140Z,1.50
2022-07-27T13:28:22.130Z,1.10
2022-07-27T13:29:22.141Z,1.50
2022-07-27T13:30:22.133Z,1.90
2022-07-27T13:31:22.283Z,1.20
2022-07-27T13:32:22.184Z,1.50
2022-07-27T13:33:22.126Z,2.50
2022-07-27T13:34:22.126Z,2.30
2022-07-27T13:35:22.124Z,1.60
2022-07-27T13:36:22.129Z,1.40
2022-07-27T13:37:22.119Z,1.70